METAR Data
IDs: Format: Raw Decoded Include TAF

Data at: 2119 UTC 18 Sep 2018

KGWR 182115Z AUTO 01012KT 10SM 19/09 A3000 RMK A01
KGWR 182055Z AUTO 04008G14KT 10SM 18/09 A2999 RMK A01
KGWR 182035Z AUTO 02010KT 10SM 19/09 A2999 RMK A01
KGWR 182015Z AUTO 02010KT 10SM 19/09 A3001 RMK A01
KGWR 181955Z AUTO 36007KT 330V030 10SM 19/09 A3002 RMK A01
KGWR 181935Z AUTO 01010KT 10SM 19/09 A3001 RMK A01
KGWR 181915Z AUTO 02005G10KT 10SM 19/09 A3002 RMK A01
KGWR 181855Z AUTO VRB04KT 10SM 18/09 A3001 RMK A01
KGWR 181835Z AUTO 03009KT 10SM 19/09 A3001 RMK A01
KGWR 181815Z AUTO 02007KT 10SM 17/09 A3003 RMK A01
KGWR 181755Z AUTO 04008KT 10SM 17/09 A3004 RMK A01
KGWR 181735Z AUTO 36006KT 10SM 16/09 A3005 RMK A01
KGWR 181715Z AUTO 05006KT 10SM 15/09 A3004 RMK A01
KGWR 181655Z AUTO 03010KT 10SM 15/09 A3003 RMK A01
KGWR 181635Z AUTO 05010KT 10SM 14/09 A3002 RMK A01
KGWR 181615Z AUTO 03008G15KT 10SM 15/09 A3003 RMK A01
KGWR 181555Z AUTO 03010G17KT 10SM 13/08 A3002 RMK A01
KGWR 181535Z AUTO 02011G18KT 10SM 13/08 A3002 RMK A01
KGWR 181515Z AUTO 02012KT 10SM 12/08 A3001 RMK A01
KGWR 181455Z AUTO 02010KT 10SM 11/08 A3002 RMK A01
KGWR 181435Z AUTO 03010KT 10SM 10/08 A3002 RMK A01
KGWR 181415Z AUTO 02009KT 10SM 09/08 A3003 RMK A01
KGWR 181355Z AUTO 01008KT 10SM 08/07 A3003 RMK A01
KGWR 181335Z AUTO 36008KT 10SM 07/07 A3003 RMK A01
KGWR 181315Z AUTO 36004KT 10SM 07/07 A3004 RMK A01
KGWR 181255Z AUTO 00000KT 10SM 06/06 A3005 RMK A01
KGWR 181235Z AUTO 00000KT 10SM 06/06 A3005 RMK A01
KGWR 181215Z AUTO 00000KT 10SM 06/06 A3005 RMK A01
KGWR 181155Z AUTO 00000KT 10SM 06/06 A3005 RMK A01
KGWR 181135Z AUTO 00000KT 10SM 06/06 A3006 RMK A01
KGWR 181115Z AUTO 00000KT 10SM 06/06 A3004 RMK A01
KGWR 181055Z AUTO 35004KT 10SM 07/06 A3002 RMK A01
KGWR 181035Z AUTO 00000KT 10SM 07/06 A3001 RMK A01
KGWR 181015Z AUTO 36004KT 10SM 07/07 A2999 RMK A01
KGWR 180955Z AUTO 35004KT 10SM 07/06 A3001 RMK A01
KGWR 180935Z AUTO 35005KT 10SM 06/06 A3000 RMK A01
KGWR 180915Z AUTO 00000KT 10SM 07/06 A3001 RMK A01
KGWR 180855Z AUTO 36007KT 10SM 07/06 A3000 RMK A01
KGWR 180835Z AUTO 35005KT 10SM 07/06 A3002 RMK A01
KGWR 180815Z AUTO 35007KT 10SM 07/06 A3002 RMK A01
KGWR 180755Z AUTO 35006KT 10SM 07/06 A3001 RMK A01
KGWR 180735Z AUTO 34006KT 10SM 07/06 A3003 RMK A01
KGWR 180715Z AUTO 35006KT 10SM 08/06 A3003 RMK A01
KGWR 180655Z AUTO 35006KT 10SM 08/07 A3002 RMK A01
KGWR 180635Z AUTO 35006KT 10SM 08/07 A3003 RMK A01
KGWR 180615Z AUTO 35006KT 10SM 08/07 A3003 RMK A01
KGWR 180555Z AUTO 35005KT 10SM 08/07 A3003 RMK A01
KGWR 180535Z AUTO 35005KT 10SM 08/07 A3003 RMK A01
KGWR 180515Z AUTO 36004KT 10SM 09/07 A3003 RMK A01
KGWR 180455Z AUTO 36005KT 10SM 09/07 A3003 RMK A01
KGWR 180435Z AUTO 35005KT 10SM 09/07 A3003 RMK A01
KGWR 180415Z AUTO 00000KT 10SM 09/08 A3002 RMK A01
KGWR 180355Z AUTO 00000KT 10SM 09/08 A3001 RMK A01
KGWR 180335Z AUTO 00000KT 10SM 09/08 A3001 RMK A01
KGWR 180315Z AUTO 00000KT 10SM 09/08 A3001 RMK A01
KGWR 180255Z AUTO 00000KT 10SM 09/08 A3000 RMK A01
KGWR 180235Z AUTO 00000KT 10SM 10/08 A3001 RMK A01
KGWR 180215Z AUTO 00000KT 10SM 11/08 A3000 RMK A01
KGWR 180155Z AUTO 00000KT 10SM 11/08 A3000 RMK A01
KGWR 180135Z AUTO 00000KT 10SM 11/08 A2999 RMK A01
KGWR 180115Z AUTO 00000KT 10SM 12/08 A2999 RMK A01
KGWR 180055Z AUTO 00000KT 10SM 12/08 A3000 RMK A01
KGWR 180035Z AUTO 00000KT 10SM 13/08 A3000 RMK A01
KGWR 180015Z AUTO 00000KT 10SM 14/08 A3000 RMK A01
KGWR 172355Z AUTO 03007KT 10SM 15/08 A2999 RMK A01
KGWR 172335Z AUTO 05006KT 10SM 15/08 A2999 RMK A01
KGWR 172315Z AUTO 05005KT 10SM 15/08 A2999 RMK A01
KGWR 172255Z AUTO 04006KT 10SM 15/07 A3000 RMK A01
KGWR 172235Z AUTO 04008KT 10SM 15/07 A3000 RMK A01
KGWR 172215Z AUTO 04007G12KT 10SM 15/07 A3000 RMK A01
KGWR 172155Z AUTO 04010KT 10SM 15/07 A3000 RMK A01
KGWR 172135Z AUTO 04008KT 10SM 15/07 A3001 RMK A01
KGWR 172115Z AUTO 04008G14KT 10SM 15/07 A3001 RMK A01
KGWR 172055Z AUTO 02009KT 10SM 14/07 A3001 RMK A01
KGWR 172035Z AUTO 02009KT 340V040 10SM 13/07 A3000 RMK A01
KGWR 172015Z AUTO 02010KT 10SM 14/07 A3000 RMK A01
KGWR 171955Z AUTO 03010KT 10SM 13/07 A3001 RMK A01
KGWR 171935Z AUTO 04009KT 360V070 10SM 13/07 A3003 RMK A01
KGWR 171915Z AUTO 04006KT 10SM 12/07 A3003 RMK A01
KGWR 171855Z AUTO 07007KT 10SM 12/07 A3004 RMK A01
KGWR 171835Z AUTO 04007KT 010V090 10SM 11/07 A3004 RMK A01
KGWR 171815Z AUTO 03012KT 10SM 11/07 A3002 RMK A01
KGWR 171755Z AUTO 01011KT 10SM 10/07 A3004 RMK A01
KGWR 171735Z AUTO 01008KT 10SM 10/07 A3004 RMK A01
KGWR 171715Z AUTO 01007KT 10SM 10/07 A3004 RMK A01
KGWR 171655Z AUTO 00000KT 10SM 09/06 A3006 RMK A01
KGWR 171635Z AUTO 00000KT 10SM 08/07 A3007 RMK A01
KGWR 171615Z AUTO 00000KT 10SM 08/07 A3007 RMK A01
KGWR 171555Z AUTO 00000G13KT 10SM 08/06 A3009 RMK A01
KGWR 171535Z AUTO 05004G10KT 10SM 08/06 A3004 RMK A01
KGWR 171515Z AUTO 04008KT 10SM 08/06 A2997 RMK A01
KGWR 171455Z AUTO 03013G23KT 10SM 07/06 A2994 RMK A01
KGWR 171435Z AUTO 02016G24KT 9SM 07/06 A2996 RMK A01
KGWR 171415Z AUTO 06010G18KT 10SM 08/06 A3002 RMK A01
KGWR 171355Z AUTO 01007G19KT 8SM 08/07 A3008 RMK A01
KGWR 171335Z AUTO 03012G19KT 8SM 09/08 A3004 RMK A01
KGWR 171315Z AUTO 02015KT 10SM 10/09 A3005 RMK A01
KGWR 171255Z AUTO 03012G18KT 10SM 10/08 A3000 RMK A01
KGWR 171235Z AUTO 03012G17KT 10SM 10/08 A3002 RMK A01
KGWR 171215Z AUTO 02011G17KT 10SM 10/08 A3001 RMK A01
KGWR 171155Z AUTO 02009KT 10SM 10/08 A3003 RMK A01
KGWR 171135Z AUTO 01010G17KT 10SM 10/08 A3003 RMK A01
KGWR 171115Z AUTO 36011KT 10SM 10/09 A3003 RMK A01
KGWR 171055Z AUTO 01010G17KT 10SM 10/09 A3002 RMK A01
KGWR 171035Z AUTO 01011KT 10SM 10/09 A3001 RMK A01
KGWR 171015Z AUTO 01011G17KT 10SM 10/09 A3000 RMK A01
KGWR 170955Z AUTO 02012KT 10SM 11/10 A3000 RMK A01
KGWR 170935Z AUTO 02009KT 10SM 11/10 A3000 RMK A01